sensor_id;sensor_type;location;lat;lon;timestamp;pressure;altitude;pressure_sealevel;temperature;humidity
36190;BME280;22232;50.914;13.858;2022-11-12T00:00:17;99404.75;;;8.37;66.41
36190;BME280;22232;50.914;13.858;2022-11-12T00:03:04;99405.34;;;8.24;68.94
36190;BME280;22232;50.914;13.858;2022-11-12T00:05:50;99405.41;;;8.16;69.61
36190;BME280;22232;50.914;13.858;2022-11-12T00:08:36;99401.63;;;8.10;69.99
36190;BME280;22232;50.914;13.858;2022-11-12T00:11:22;99401.97;;;8.07;70.52
36190;BME280;22232;50.914;13.858;2022-11-12T00:14:08;99395.69;;;8.00;71.39
36190;BME280;22232;50.914;13.858;2022-11-12T00:16:54;99402.22;;;7.97;72.12
36190;BME280;22232;50.914;13.858;2022-11-12T00:19:40;99403.84;;;7.98;72.01
36190;BME280;22232;50.914;13.858;2022-11-12T00:22:27;99405.03;;;7.96;71.24
36190;BME280;22232;50.914;13.858;2022-11-12T00:25:13;99403.03;;;7.98;69.21
36190;BME280;22232;50.914;13.858;2022-11-12T00:28:01;99402.69;;;8.01;67.75
36190;BME280;22232;50.914;13.858;2022-11-12T00:30:47;99404.31;;;8.02;67.45
36190;BME280;22232;50.914;13.858;2022-11-12T00:33:33;99411.13;;;8.04;67.15
36190;BME280;22232;50.914;13.858;2022-11-12T00:36:19;99408.47;;;8.04;67.71
36190;BME280;22232;50.914;13.858;2022-11-12T00:39:05;99405.34;;;8.01;67.25
36190;BME280;22232;50.914;13.858;2022-11-12T00:41:51;99407.34;;;7.99;68.12
36190;BME280;22232;50.914;13.858;2022-11-12T00:44:38;99400.59;;;7.88;69.97
36190;BME280;22232;50.914;13.858;2022-11-12T00:47:23;99406.38;;;7.92;67.84
36190;BME280;22232;50.914;13.858;2022-11-12T00:50:10;99405.97;;;8.03;66.66
36190;BME280;22232;50.914;13.858;2022-11-12T00:52:56;99397.88;;;7.96;68.14
36190;BME280;22232;50.914;13.858;2022-11-12T00:55:42;99404.91;;;7.89;71.51
36190;BME280;22232;50.914;13.858;2022-11-12T00:58:33;99404.59;;;7.84;74.73
36190;BME280;22232;50.914;13.858;2022-11-12T01:01:20;99410.22;;;7.89;76.54
36190;BME280;22232;50.914;13.858;2022-11-12T01:04:06;99408.03;;;7.93;76.11
36190;BME280;22232;50.914;13.858;2022-11-12T01:06:53;99406.56;;;7.82;77.07
36190;BME280;22232;50.914;13.858;2022-11-12T01:09:39;99405.59;;;7.83;76.30
36190;BME280;22232;50.914;13.858;2022-11-12T01:12:25;99404.97;;;7.73;76.11
36190;BME280;22232;50.914;13.858;2022-11-12T01:15:11;99404.72;;;7.91;69.03
36190;BME280;22232;50.914;13.858;2022-11-12T01:17:57;99409.31;;;7.97;66.83
36190;BME280;22232;50.914;13.858;2022-11-12T01:20:43;99407.34;;;7.99;67.72
36190;BME280;22232;50.914;13.858;2022-11-12T01:23:34;99412.78;;;8.05;66.99
36190;BME280;22232;50.914;13.858;2022-11-12T01:26:21;99414.91;;;8.10;64.72
36190;BME280;22232;50.914;13.858;2022-11-12T01:29:07;99408.25;;;8.14;63.33
36190;BME280;22232;50.914;13.858;2022-11-12T01:31:53;99403.69;;;8.23;62.34
36190;BME280;22232;50.914;13.858;2022-11-12T01:34:39;99400.81;;;8.33;60.24
36190;BME280;22232;50.914;13.858;2022-11-12T01:37:25;99402.19;;;8.28;61.09
36190;BME280;22232;50.914;13.858;2022-11-12T01:40:11;99395.63;;;8.39;60.27
36190;BME280;22232;50.914;13.858;2022-11-12T01:42:57;99392.41;;;8.52;58.35
36190;BME280;22232;50.914;13.858;2022-11-12T01:45:45;99392.41;;;8.67;57.42
36190;BME280;22232;50.914;13.858;2022-11-12T01:48:39;99389.53;;;8.91;55.76
36190;BME280;22232;50.914;13.858;2022-11-12T01:51:32;99393.84;;;8.78;56.95
36190;BME280;22232;50.914;13.858;2022-11-12T01:54:20;99389.41;;;8.70;58.09
36190;BME280;22232;50.914;13.858;2022-11-12T01:57:09;99381.41;;;8.55;58.20
36190;BME280;22232;50.914;13.858;2022-11-12T01:59:59;99387.59;;;8.47;58.63
36190;BME280;22232;50.914;13.858;2022-11-12T02:02:52;99383.16;;;8.40;59.78
36190;BME280;22232;50.914;13.858;2022-11-12T02:05:41;99386.34;;;8.35;61.18
36190;BME280;22232;50.914;13.858;2022-11-12T02:08:28;99393.63;;;8.41;60.08
36190;BME280;22232;50.914;13.858;2022-11-12T02:11:20;99392.31;;;8.37;61.05
36190;BME280;22232;50.914;13.858;2022-11-12T02:14:06;99390.00;;;8.34;61.61
36190;BME280;22232;50.914;13.858;2022-11-12T02:16:52;99385.31;;;8.36;61.24
36190;BME280;22232;50.914;13.858;2022-11-12T02:19:39;99387.31;;;8.42;60.26
36190;BME280;22232;50.914;13.858;2022-11-12T02:22:25;99387.97;;;8.44;59.04
36190;BME280;22232;50.914;13.858;2022-11-12T02:25:21;99388.91;;;8.52;58.45
36190;BME280;22232;50.914;13.858;2022-11-12T02:28:09;99384.53;;;8.59;57.66
36190;BME280;22232;50.914;13.858;2022-11-12T02:30:55;99383.81;;;8.65;57.42
36190;BME280;22232;50.914;13.858;2022-11-12T02:33:40;99385.94;;;8.69;57.45
36190;BME280;22232;50.914;13.858;2022-11-12T02:36:27;99383.09;;;8.71;57.86
36190;BME280;22232;50.914;13.858;2022-11-12T02:39:13;99392.72;;;8.72;56.92
36190;BME280;22232;50.914;13.858;2022-11-12T02:41:59;99390.41;;;8.69;57.83
36190;BME280;22232;50.914;13.858;2022-11-12T02:44:45;99386.38;;;8.58;59.25
36190;BME280;22232;50.914;13.858;2022-11-12T02:47:32;99380.34;;;8.41;61.09
36190;BME280;22232;50.914;13.858;2022-11-12T02:50:18;99381.69;;;8.37;61.11
36190;BME280;22232;50.914;13.858;2022-11-12T02:53:05;99382.94;;;8.49;59.62
36190;BME280;22232;50.914;13.858;2022-11-12T02:55:51;99384.03;;;8.32;63.38
36190;BME280;22232;50.914;13.858;2022-11-12T02:58:37;99392.75;;;8.18;65.09
36190;BME280;22232;50.914;13.858;2022-11-12T03:01:23;99402.16;;;8.05;66.54
36190;BME280;22232;50.914;13.858;2022-11-12T03:04:09;99399.56;;;7.97;67.59
36190;BME280;22232;50.914;13.858;2022-11-12T03:06:54;99406.19;;;7.93;68.45
36190;BME280;22232;50.914;13.858;2022-11-12T03:09:40;99405.38;;;7.93;67.85
36190;BME280;22232;50.914;13.858;2022-11-12T03:12:26;99412.69;;;7.91;67.69
36190;BME280;22232;50.914;13.858;2022-11-12T03:15:15;99402.75;;;7.85;67.64
36190;BME280;22232;50.914;13.858;2022-11-12T03:18:02;99399.47;;;7.82;67.59
36190;BME280;22232;50.914;13.858;2022-11-12T03:20:50;99396.13;;;7.80;67.55
36190;BME280;22232;50.914;13.858;2022-11-12T03:23:37;99393.47;;;7.80;66.84
36190;BME280;22232;50.914;13.858;2022-11-12T03:26:23;99394.16;;;7.82;65.87
36190;BME280;22232;50.914;13.858;2022-11-12T03:29:09;99397.28;;;7.86;65.70
36190;BME280;22232;50.914;13.858;2022-11-12T03:31:55;99397.41;;;7.93;64.82
36190;BME280;22232;50.914;13.858;2022-11-12T03:34:41;99397.53;;;7.99;63.78
36190;BME280;22232;50.914;13.858;2022-11-12T03:37:27;99395.84;;;8.07;61.70
36190;BME280;22232;50.914;13.858;2022-11-12T03:40:13;99396.47;;;8.09;61.88
36190;BME280;22232;50.914;13.858;2022-11-12T03:42:59;99397.91;;;8.19;59.61
36190;BME280;22232;50.914;13.858;2022-11-12T03:45:45;99392.75;;;8.18;59.80
36190;BME280;22232;50.914;13.858;2022-11-12T03:48:31;99388.34;;;8.33;59.43
36190;BME280;22232;50.914;13.858;2022-11-12T03:51:17;99384.50;;;8.36;59.03
36190;BME280;22232;50.914;13.858;2022-11-12T03:54:06;99393.91;;;8.23;60.14
36190;BME280;22232;50.914;13.858;2022-11-12T03:56:52;99381.53;;;8.08;61.96
36190;BME280;22232;50.914;13.858;2022-11-12T03:59:38;99379.94;;;7.98;63.48
36190;BME280;22232;50.914;13.858;2022-11-12T04:02:24;99386.66;;;7.86;65.95
36190;BME280;22232;50.914;13.858;2022-11-12T04:05:11;99382.72;;;7.74;68.78
36190;BME280;22232;50.914;13.858;2022-11-12T04:08:17;99379.44;;;7.64;67.88
36190;BME280;22232;50.914;13.858;2022-11-12T04:11:22;99378.78;;;8.24;58.27
36190;BME280;22232;50.914;13.858;2022-11-12T04:14:09;99381.50;;;8.62;58.36
36190;BME280;22232;50.914;13.858;2022-11-12T04:16:54;99373.19;;;8.19;71.37
36190;BME280;22232;50.914;13.858;2022-11-12T04:19:59;99386.63;;;7.94;68.69
36190;BME280;22232;50.914;13.858;2022-11-12T04:23:04;99380.72;;;7.76;68.97
36190;BME280;22232;50.914;13.858;2022-11-12T04:25:50;99380.59;;;7.69;67.56
36190;BME280;22232;50.914;13.858;2022-11-12T04:28:54;99385.91;;;7.69;67.08
36190;BME280;22232;50.914;13.858;2022-11-12T04:31:59;99392.53;;;7.73;67.24
36190;BME280;22232;50.914;13.858;2022-11-12T04:34:45;99387.91;;;7.67;69.76
36190;BME280;22232;50.914;13.858;2022-11-12T04:37:32;99395.59;;;7.54;72.84
36190;BME280;22232;50.914;13.858;2022-11-12T04:40:31;99394.66;;;7.39;74.72
36190;BME280;22232;50.914;13.858;2022-11-12T04:43:35;99394.88;;;7.21;78.27
36190;BME280;22232;50.914;13.858;2022-11-12T04:46:40;99403.34;;;7.08;80.83
36190;BME280;22232;50.914;13.858;2022-11-12T04:49:27;99401.91;;;6.97;82.04
36190;BME280;22232;50.914;13.858;2022-11-12T04:52:14;99395.59;;;6.90;81.50
36190;BME280;22232;50.914;13.858;2022-11-12T04:55:00;99398.56;;;6.87;82.07
36190;BME280;22232;50.914;13.858;2022-11-12T04:57:46;99397.41;;;6.89;79.28
36190;BME280;22232;50.914;13.858;2022-11-12T05:00:32;99401.03;;;6.97;77.26
36190;BME280;22232;50.914;13.858;2022-11-12T05:03:19;99405.38;;;6.98;76.94
36190;BME280;22232;50.914;13.858;2022-11-12T05:06:05;99405.03;;;6.93;77.99
36190;BME280;22232;50.914;13.858;2022-11-12T05:09:14;99408.53;;;6.85;80.51
36190;BME280;22232;50.914;13.858;2022-11-12T05:12:01;99410.38;;;6.76;83.04
36190;BME280;22232;50.914;13.858;2022-11-12T05:14:47;99413.84;;;6.69;85.86
36190;BME280;22232;50.914;13.858;2022-11-12T05:17:33;99417.34;;;6.61;87.60
36190;BME280;22232;50.914;13.858;2022-11-12T05:20:19;99419.16;;;6.52;88.78
36190;BME280;22232;50.914;13.858;2022-11-12T05:23:05;99417.31;;;6.44;90.74
36190;BME280;22232;50.914;13.858;2022-11-12T05:25:52;99419.78;;;6.38;89.70
36190;BME280;22232;50.914;13.858;2022-11-12T05:28:38;99416.47;;;6.36;84.76
36190;BME280;22232;50.914;13.858;2022-11-12T05:31:24;99423.75;;;6.42;81.22
36190;BME280;22232;50.914;13.858;2022-11-12T05:34:10;99423.13;;;6.40;80.94
36190;BME280;22232;50.914;13.858;2022-11-12T05:36:57;99427.56;;;6.48;81.31
36190;BME280;22232;50.914;13.858;2022-11-12T05:39:43;99420.31;;;6.50;80.08
36190;BME280;22232;50.914;13.858;2022-11-12T05:42:29;99426.28;;;6.52;79.56
36190;BME280;22232;50.914;13.858;2022-11-12T05:45:15;99424.44;;;6.52;79.35
36190;BME280;22232;50.914;13.858;2022-11-12T05:48:01;99427.44;;;6.49;82.37
36190;BME280;22232;50.914;13.858;2022-11-12T05:50:51;99421.78;;;6.44;84.65
36190;BME280;22232;50.914;13.858;2022-11-12T05:53:58;99415.50;;;6.37;86.42
36190;BME280;22232;50.914;13.858;2022-11-12T05:56:45;99425.59;;;6.33;86.38
36190;BME280;22232;50.914;13.858;2022-11-12T05:59:31;99429.41;;;6.31;87.04
36190;BME280;22232;50.914;13.858;2022-11-12T06:02:17;99430.22;;;6.31;85.24
36190;BME280;22232;50.914;13.858;2022-11-12T06:05:04;99427.25;;;6.34;83.90
36190;BME280;22232;50.914;13.858;2022-11-12T06:07:50;99428.72;;;6.45;77.74
36190;BME280;22232;50.914;13.858;2022-11-12T06:10:36;99432.25;;;6.70;71.43
36190;BME280;22232;50.914;13.858;2022-11-12T06:13:23;99427.03;;;7.18;65.63
36190;BME280;22232;50.914;13.858;2022-11-12T06:16:09;99432.97;;;7.44;63.54
36190;BME280;22232;50.914;13.858;2022-11-12T06:18:56;99426.06;;;7.74;61.48
36190;BME280;22232;50.914;13.858;2022-11-12T06:21:42;99440.00;;;7.76;61.88
36190;BME280;22232;50.914;13.858;2022-11-12T06:24:28;99438.97;;;7.86;61.25
36190;BME280;22232;50.914;13.858;2022-11-12T06:27:20;99436.22;;;8.02;59.36
36190;BME280;22232;50.914;13.858;2022-11-12T06:30:07;99436.31;;;8.17;58.61
36190;BME280;22232;50.914;13.858;2022-11-12T06:32:54;99429.50;;;8.45;56.01
36190;BME280;22232;50.914;13.858;2022-11-12T06:35:40;99441.84;;;8.30;58.56
36190;BME280;22232;50.914;13.858;2022-11-12T06:38:33;99433.59;;;8.25;57.82
36190;BME280;22232;50.914;13.858;2022-11-12T06:41:19;99439.66;;;8.34;57.79
36190;BME280;22232;50.914;13.858;2022-11-12T06:44:05;99439.03;;;8.32;59.66
36190;BME280;22232;50.914;13.858;2022-11-12T06:46:53;99435.63;;;8.46;58.83
36190;BME280;22232;50.914;13.858;2022-11-12T06:49:39;99435.22;;;8.80;58.21
36190;BME280;22232;50.914;13.858;2022-11-12T06:52:24;99445.66;;;9.05;57.64
36190;BME280;22232;50.914;13.858;2022-11-12T06:55:11;99441.34;;;9.18;58.66
36190;BME280;22232;50.914;13.858;2022-11-12T06:57:57;99443.41;;;9.61;58.18
36190;BME280;22232;50.914;13.858;2022-11-12T07:00:43;99438.75;;;10.14;56.16
36190;BME280;22232;50.914;13.858;2022-11-12T07:03:29;99440.72;;;10.63;54.56
36190;BME280;22232;50.914;13.858;2022-11-12T07:06:15;99441.13;;;11.10;51.59
36190;BME280;22232;50.914;13.858;2022-11-12T07:09:06;99440.69;;;11.69;50.12
36190;BME280;22232;50.914;13.858;2022-11-12T07:11:52;99436.00;;;12.32;47.59
36190;BME280;22232;50.914;13.858;2022-11-12T07:14:38;99433.84;;;12.82;45.74
36190;BME280;22232;50.914;13.858;2022-11-12T07:17:24;99434.25;;;13.13;48.28
36190;BME280;22232;50.914;13.858;2022-11-12T07:20:11;99436.72;;;13.34;47.44
36190;BME280;22232;50.914;13.858;2022-11-12T07:23:01;99430.16;;;13.30;45.46
36190;BME280;22232;50.914;13.858;2022-11-12T07:25:54;99434.88;;;13.28;44.48
36190;BME280;22232;50.914;13.858;2022-11-12T07:28:40;99439.00;;;13.30;44.48
36190;BME280;22232;50.914;13.858;2022-11-12T07:31:26;99431.13;;;13.49;44.70
36190;BME280;22232;50.914;13.858;2022-11-12T07:34:12;99442.28;;;13.39;43.69
36190;BME280;22232;50.914;13.858;2022-11-12T07:36:58;99437.22;;;13.83;44.21
36190;BME280;22232;50.914;13.858;2022-11-12T07:39:44;99430.09;;;14.08;45.32
36190;BME280;22232;50.914;13.858;2022-11-12T07:42:34;99439.28;;;14.32;46.14
36190;BME280;22232;50.914;13.858;2022-11-12T07:45:20;99434.22;;;14.49;45.51
36190;BME280;22232;50.914;13.858;2022-11-12T07:48:06;99434.34;;;14.29;49.17
36190;BME280;22232;50.914;13.858;2022-11-12T07:50:52;99437.53;;;14.13;48.23
36190;BME280;22232;50.914;13.858;2022-11-12T07:53:38;99444.00;;;14.37;48.44
36190;BME280;22232;50.914;13.858;2022-11-12T07:56:26;99437.84;;;14.68;48.61
36190;BME280;22232;50.914;13.858;2022-11-12T07:59:12;99436.75;;;14.76;46.35
36190;BME280;22232;50.914;13.858;2022-11-12T08:01:58;99440.53;;;14.68;48.79
36190;BME280;22232;50.914;13.858;2022-11-12T08:04:44;99428.78;;;14.62;50.39
36190;BME280;22232;50.914;13.858;2022-11-12T08:07:30;99429.75;;;14.75;50.50
36190;BME280;22232;50.914;13.858;2022-11-12T08:10:15;99428.94;;;14.74;50.02
36190;BME280;22232;50.914;13.858;2022-11-12T08:13:02;99417.91;;;14.82;53.94
36190;BME280;22232;50.914;13.858;2022-11-12T08:15:48;99421.50;;;14.69;63.46
36190;BME280;22232;50.914;13.858;2022-11-12T08:18:36;99423.44;;;14.17;79.06
36190;BME280;22232;50.914;13.858;2022-11-12T08:21:23;99424.78;;;14.02;80.15
36190;BME280;22232;50.914;13.858;2022-11-12T08:24:09;99432.97;;;13.55;84.60
36190;BME280;22232;50.914;13.858;2022-11-12T08:26:56;99421.41;;;13.61;84.79
36190;BME280;22232;50.914;13.858;2022-11-12T08:29:41;99429.56;;;13.86;80.74
36190;BME280;22232;50.914;13.858;2022-11-12T08:32:28;99435.41;;;13.76;80.45
36190;BME280;22232;50.914;13.858;2022-11-12T08:35:13;99430.75;;;13.45;71.90
36190;BME280;22232;50.914;13.858;2022-11-12T08:38:01;99439.41;;;13.21;78.06
36190;BME280;22232;50.914;13.858;2022-11-12T08:40:48;99443.72;;;13.22;73.16
36190;BME280;22232;50.914;13.858;2022-11-12T08:43:34;99436.94;;;13.26;73.78
36190;BME280;22232;50.914;13.858;2022-11-12T08:46:20;99430.50;;;13.47;73.40
36190;BME280;22232;50.914;13.858;2022-11-12T08:49:07;99435.19;;;13.71;70.86
36190;BME280;22232;50.914;13.858;2022-11-12T08:51:52;99436.78;;;13.92;73.77
36190;BME280;22232;50.914;13.858;2022-11-12T08:54:38;99436.84;;;13.72;73.56
36190;BME280;22232;50.914;13.858;2022-11-12T08:57:24;99430.13;;;14.02;86.06
36190;BME280;22232;50.914;13.858;2022-11-12T09:00:11;99439.88;;;13.89;85.80
36190;BME280;22232;50.914;13.858;2022-11-12T09:03:02;99433.72;;;13.82;73.99
36190;BME280;22232;50.914;13.858;2022-11-12T09:05:50;99433.59;;;13.64;67.89
36190;BME280;22232;50.914;13.858;2022-11-12T09:08:36;99429.22;;;13.63;62.67
36190;BME280;22232;50.914;13.858;2022-11-12T09:11:22;99427.53;;;13.75;65.87
36190;BME280;22232;50.914;13.858;2022-11-12T09:14:08;99429.16;;;13.89;65.76
36190;BME280;22232;50.914;13.858;2022-11-12T09:16:55;99429.22;;;13.76;64.55
36190;BME280;22232;50.914;13.858;2022-11-12T09:19:41;99428.66;;;13.47;68.14
36190;BME280;22232;50.914;13.858;2022-11-12T09:22:28;99428.88;;;13.32;62.47
36190;BME280;22232;50.914;13.858;2022-11-12T09:25:14;99437.13;;;13.11;60.77
36190;BME280;22232;50.914;13.858;2022-11-12T09:30:53;99423.53;;;13.32;67.89
36190;BME280;22232;50.914;13.858;2022-11-12T09:33:40;99426.00;;;13.01;100.00
36190;BME280;22232;50.914;13.858;2022-11-12T09:36:26;99439.38;;;12.68;100.00
36190;BME280;22232;50.914;13.858;2022-11-12T09:39:12;99435.22;;;12.45;100.00
36190;BME280;22232;50.914;13.858;2022-11-12T09:41:58;99436.88;;;12.39;93.97
36190;BME280;22232;50.914;13.858;2022-11-12T09:45:12;99435.16;;;12.19;100.00
36190;BME280;22232;50.914;13.858;2022-11-12T09:48:08;99427.28;;;12.04;100.00
36190;BME280;22232;50.914;13.858;2022-11-12T09:51:04;99421.56;;;12.20;100.00
36190;BME280;22232;50.914;13.858;2022-11-12T09:54:03;99432.13;;;12.42;96.27
36190;BME280;22232;50.914;13.858;2022-11-12T09:56:52;99429.50;;;12.68;100.00
36190;BME280;22232;50.914;13.858;2022-11-12T09:59:41;99427.25;;;12.78;100.00
36190;BME280;22232;50.914;13.858;2022-11-12T10:02:31;99430.13;;;12.57;100.00
36190;BME280;22232;50.914;13.858;2022-11-12T10:05:35;99427.63;;;12.69;100.00
36190;BME280;22232;50.914;13.858;2022-11-12T10:12:29;99418.38;;;12.71;69.91
36190;BME280;22232;50.914;13.858;2022-11-12T10:19:20;99446.94;;;12.37;63.47
36190;BME280;22232;50.914;13.858;2022-11-12T10:25:19;99445.31;;;12.50;55.43
36190;BME280;22232;50.914;13.858;2022-11-12T10:28:29;99437.28;;;12.56;54.94
36190;BME280;22232;50.914;13.858;2022-11-12T10:31:23;99434.41;;;12.51;53.20
36190;BME280;22232;50.914;13.858;2022-11-12T10:37:03;99445.53;;;12.48;53.70
36190;BME280;22232;50.914;13.858;2022-11-12T10:39:50;99441.19;;;12.47;56.69
36190;BME280;22232;50.914;13.858;2022-11-12T10:42:55;99442.81;;;12.42;68.78
36190;BME280;22232;50.914;13.858;2022-11-12T10:45:43;99439.97;;;12.50;69.09
36190;BME280;22232;50.914;13.858;2022-11-12T10:48:30;99439.72;;;12.38;68.26
36190;BME280;22232;50.914;13.858;2022-11-12T10:51:24;99435.00;;;12.40;56.75
36190;BME280;22232;50.914;13.858;2022-11-12T10:54:24;99435.22;;;12.45;56.20
36190;BME280;22232;50.914;13.858;2022-11-12T10:57:22;99437.84;;;12.32;55.01
36190;BME280;22232;50.914;13.858;2022-11-12T11:02:59;99438.09;;;12.50;54.25
36190;BME280;22232;50.914;13.858;2022-11-12T11:09:06;99438.75;;;12.52;59.14
36190;BME280;22232;50.914;13.858;2022-11-12T11:11:51;99441.81;;;12.56;59.37
36190;BME280;22232;50.914;13.858;2022-11-12T11:14:38;99439.78;;;12.51;56.22
36190;BME280;22232;50.914;13.858;2022-11-12T11:17:25;99433.41;;;12.66;56.75
36190;BME280;22232;50.914;13.858;2022-11-12T11:20:27;99428.66;;;12.81;56.78
36190;BME280;22232;50.914;13.858;2022-11-12T11:26:40;99429.94;;;12.92;58.37
36190;BME280;22232;50.914;13.858;2022-11-12T11:29:37;99432.81;;;13.03;56.71
36190;BME280;22232;50.914;13.858;2022-11-12T11:38:43;99439.59;;;12.73;50.06
36190;BME280;22232;50.914;13.858;2022-11-12T11:47:39;99427.88;;;13.00;51.80
36190;BME280;22232;50.914;13.858;2022-11-12T11:51:28;99426.19;;;12.99;49.18
36190;BME280;22232;50.914;13.858;2022-11-12T12:16:43;99389.88;;;13.50;51.29
36190;BME280;22232;50.914;13.858;2022-11-12T12:19:47;99392.78;;;13.48;51.22
36190;BME280;22232;50.914;13.858;2022-11-12T12:22:41;99386.78;;;13.53;52.67
36190;BME280;22232;50.914;13.858;2022-11-12T12:25:32;99381.81;;;13.57;53.48
36190;BME280;22232;50.914;13.858;2022-11-12T12:28:36;99384.34;;;13.51;55.20
36190;BME280;22232;50.914;13.858;2022-11-12T12:31:28;99379.16;;;13.50;54.03
36190;BME280;22232;50.914;13.858;2022-11-12T12:34:26;99376.50;;;13.43;55.36
36190;BME280;22232;50.914;13.858;2022-11-12T12:37:36;99382.72;;;13.30;54.16
36190;BME280;22232;50.914;13.858;2022-11-12T12:40:32;99387.88;;;13.25;54.10
36190;BME280;22232;50.914;13.858;2022-11-12T12:43:23;99377.56;;;13.29;55.81
36190;BME280;22232;50.914;13.858;2022-11-12T12:46:13;99373.44;;;13.26;55.76
36190;BME280;22232;50.914;13.858;2022-11-12T12:49:02;99363.97;;;13.11;55.11
36190;BME280;22232;50.914;13.858;2022-11-12T12:51:50;99364.63;;;13.06;54.69
36190;BME280;22232;50.914;13.858;2022-11-12T12:57:31;99366.03;;;13.02;57.22
36190;BME280;22232;50.914;13.858;2022-11-12T13:00:39;99365.63;;;12.98;60.50
36190;BME280;22232;50.914;13.858;2022-11-12T13:12:07;99359.06;;;12.48;80.75
36190;BME280;22232;50.914;13.858;2022-11-12T13:15:14;99354.50;;;12.42;83.23
36190;BME280;22232;50.914;13.858;2022-11-12T13:18:00;99357.19;;;12.42;80.96
36190;BME280;22232;50.914;13.858;2022-11-12T13:21:09;99363.56;;;12.34;89.07
36190;BME280;22232;50.914;13.858;2022-11-12T13:23:58;99364.78;;;12.25;96.92
36190;BME280;22232;50.914;13.858;2022-11-12T13:26:58;99365.63;;;12.19;93.98
36190;BME280;22232;50.914;13.858;2022-11-12T13:29:45;99374.63;;;12.11;90.02
36190;BME280;22232;50.914;13.858;2022-11-12T13:32:42;99377.09;;;12.06;94.29
36190;BME280;22232;50.914;13.858;2022-11-12T13:35:38;99375.44;;;11.98;93.62
36190;BME280;22232;50.914;13.858;2022-11-12T13:38:24;99369.88;;;11.93;90.68
36190;BME280;22232;50.914;13.858;2022-11-12T13:41:17;99366.72;;;11.83;89.36
36190;BME280;22232;50.914;13.858;2022-11-12T13:44:06;99363.19;;;11.76;93.96
36190;BME280;22232;50.914;13.858;2022-11-12T13:46:57;99355.59;;;11.79;95.09
36190;BME280;22232;50.914;13.858;2022-11-12T13:49:47;99358.09;;;11.81;95.76
36190;BME280;22232;50.914;13.858;2022-11-12T13:52:34;99354.53;;;11.74;90.92
36190;BME280;22232;50.914;13.858;2022-11-12T13:55:21;99359.88;;;11.74;91.08
36190;BME280;22232;50.914;13.858;2022-11-12T13:58:30;99355.75;;;11.71;89.24
36190;BME280;22232;50.914;13.858;2022-11-12T14:01:19;99356.16;;;11.68;83.96
36190;BME280;22232;50.914;13.858;2022-11-12T14:04:09;99364.97;;;11.62;84.91
36190;BME280;22232;50.914;13.858;2022-11-12T14:07:07;99356.69;;;11.50;83.69
36190;BME280;22232;50.914;13.858;2022-11-12T14:10:11;99366.75;;;11.41;90.40
36190;BME280;22232;50.914;13.858;2022-11-12T14:19:37;99358.06;;;11.33;87.09
36190;BME280;22232;50.914;13.858;2022-11-12T14:22:39;99350.63;;;11.28;84.21
36190;BME280;22232;50.914;13.858;2022-11-12T14:25:26;99353.09;;;11.23;82.61
36190;BME280;22232;50.914;13.858;2022-11-12T14:28:31;99357.41;;;11.24;83.63
36190;BME280;22232;50.914;13.858;2022-11-12T14:31:23;99341.28;;;11.11;84.97
36190;BME280;22232;50.914;13.858;2022-11-12T14:34:19;99342.41;;;10.95;87.21
36190;BME280;22232;50.914;13.858;2022-11-12T14:37:19;99336.63;;;10.85;86.73
36190;BME280;22232;50.914;13.858;2022-11-12T14:40:17;99335.50;;;10.72;91.06
36190;BME280;22232;50.914;13.858;2022-11-12T14:43:04;99336.22;;;10.60;90.86
36190;BME280;22232;50.914;13.858;2022-11-12T14:45:53;99325.91;;;10.50;94.08
36190;BME280;22232;50.914;13.858;2022-11-12T14:48:48;99326.59;;;10.37;93.31
36190;BME280;22232;50.914;13.858;2022-11-12T14:51:43;99327.72;;;10.28;94.03
36190;BME280;22232;50.914;13.858;2022-11-12T14:54:56;99328.47;;;10.22;93.02
36190;BME280;22232;50.914;13.858;2022-11-12T14:57:41;99330.53;;;10.20;94.06
36190;BME280;22232;50.914;13.858;2022-11-12T15:03:29;99337.66;;;10.19;93.99
36190;BME280;22232;50.914;13.858;2022-11-12T15:06:26;99333.31;;;10.11;95.85
36190;BME280;22232;50.914;13.858;2022-11-12T15:09:16;99334.56;;;9.94;100.00
36190;BME280;22232;50.914;13.858;2022-11-12T15:12:09;99346.72;;;9.82;100.00
36190;BME280;22232;50.914;13.858;2022-11-12T15:15:23;99331.22;;;9.71;100.00
36190;BME280;22232;50.914;13.858;2022-11-12T15:18:16;99339.94;;;9.64;100.00
36190;BME280;22232;50.914;13.858;2022-11-12T15:26:48;99332.34;;;9.61;100.00
36190;BME280;22232;50.914;13.858;2022-11-12T15:29:35;99342.47;;;9.51;100.00
36190;BME280;22232;50.914;13.858;2022-11-12T15:35:31;99328.53;;;9.34;100.00
36190;BME280;22232;50.914;13.858;2022-11-12T15:38:23;99337.88;;;9.30;100.00
36190;BME280;22232;50.914;13.858;2022-11-12T15:41:27;99333.44;;;9.16;100.00
36190;BME280;22232;50.914;13.858;2022-11-12T15:44:15;99331.47;;;9.10;100.00
36190;BME280;22232;50.914;13.858;2022-11-12T15:47:01;99328.09;;;9.01;100.00
36190;BME280;22232;50.914;13.858;2022-11-12T15:49:56;99326.91;;;8.89;100.00
36190;BME280;22232;50.914;13.858;2022-11-12T15:52:44;99323.50;;;8.80;100.00
36190;BME280;22232;50.914;13.858;2022-11-12T15:55:31;99324.56;;;8.71;100.00
36190;BME280;22232;50.914;13.858;2022-11-12T15:58:21;99324.66;;;8.63;100.00
36190;BME280;22232;50.914;13.858;2022-11-12T16:01:12;99315.44;;;8.50;100.00
36190;BME280;22232;50.914;13.858;2022-11-12T16:03:58;99323.94;;;8.46;100.00
36190;BME280;22232;50.914;13.858;2022-11-12T16:06:44;99318.84;;;8.44;100.00
36190;BME280;22232;50.914;13.858;2022-11-12T16:09:30;99323.50;;;8.42;100.00
36190;BME280;22232;50.914;13.858;2022-11-12T16:12:17;99313.38;;;8.38;100.00
36190;BME280;22232;50.914;13.858;2022-11-12T16:15:17;99322.53;;;8.35;100.00
36190;BME280;22232;50.914;13.858;2022-11-12T16:18:04;99321.25;;;8.31;100.00
36190;BME280;22232;50.914;13.858;2022-11-12T16:20:49;99320.59;;;8.29;100.00
36190;BME280;22232;50.914;13.858;2022-11-12T16:23:36;99316.09;;;8.30;100.00